Time;durP1;ratioP1;P1;durP2;ratioP2;P2;SDS_P1;SDS_P2;PMS_P1;PMS_P2;Temp;Humidity;BMP_temperature;BMP_pressure;BME280_temperature;BME280_humidity;BME280_pressure;Samples;Min_cycle;Max_cycle;Signal;HPM_P1;HPM_P2
2022/03/21 00:02:07;;;;;;;0.00;0.00;;;9.90;45.70;;;;;;4117881;28;20046;-73
2022/03/21 00:04:30;;;;;;;0.00;0.00;;;9.90;45.50;;;;;;4101571;28;20054;-74
2022/03/21 00:06:52;;;;;;;0.00;0.00;;;9.80;45.30;;;;;;4101899;29;20043;-73
2022/03/21 00:09:14;;;;;;;0.00;0.00;;;9.80;45.30;;;;;;4088631;29;20064;-71
2022/03/21 00:11:37;;;;;;;0.00;0.00;;;9.80;45.20;;;;;;4101590;29;20469;-73
2022/03/21 00:14:04;;;;;;;0.00;0.00;;;9.90;44.90;;;;;;4088442;29;20441;-73
2022/03/21 00:16:28;;;;;;;0.00;0.00;;;10.00;44.70;;;;;;4090786;28;20051;-73
2022/03/21 00:19:02;;;;;;;0.00;0.00;;;10.10;44.50;;;;;;4101547;28;20065;-73
2022/03/21 00:21:24;;;;;;;0.00;0.00;;;10.20;44.20;;;;;;4088432;29;20481;-74
2022/03/21 00:23:50;;;;;;;0.00;0.00;;;10.30;44.10;;;;;;4101199;29;20059;-73
2022/03/21 00:26:15;;;;;;;0.00;0.00;;;10.40;44.00;;;;;;4087733;28;20439;-70
2022/03/21 00:28:47;;;;;;;0.00;0.00;;;10.40;43.70;;;;;;4088208;29;20048;-73
2022/03/21 00:31:09;;;;;;;0.00;0.00;;;10.30;43.90;;;;;;4101204;29;20054;-72
2022/03/21 00:33:34;;;;;;;0.00;0.00;;;10.30;44.20;;;;;;4087817;29;20039;-71
2022/03/21 00:36:01;;;;;;;0.00;0.00;;;10.30;44.70;;;;;;4088122;29;20040;-73
2022/03/21 00:38:26;;;;;;;0.00;0.00;;;10.30;46.00;;;;;;4090083;28;20662;-72
2022/03/21 00:40:50;;;;;;;0.00;0.00;;;10.30;47.40;;;;;;4101101;28;20039;-73
2022/03/21 00:43:23;;;;;;;0.00;0.00;;;10.30;48.80;;;;;;4100791;29;20082;-74
2022/03/21 00:45:57;;;;;;;0.00;0.00;;;10.20;49.90;;;;;;4087936;29;20049;-74
2022/03/21 00:48:22;;;;;;;0.00;0.00;;;10.20;50.00;;;;;;4087292;29;20102;-73
2022/03/21 00:50:47;;;;;;;0.00;0.00;;;10.20;50.30;;;;;;4101206;29;20118;-73
2022/03/21 00:53:15;;;;;;;0.00;0.00;;;10.10;50.50;;;;;;4087890;29;20486;-73
2022/03/21 00:55:38;;;;;;;0.00;0.00;;;10.20;50.60;;;;;;4087707;29;20048;-72
2022/03/21 00:58:03;;;;;;;0.00;0.00;;;10.10;50.80;;;;;;4074481;29;20052;-71
2022/03/21 01:00:28;;;;;;;0.00;0.00;;;10.00;50.90;;;;;;4087140;29;20039;-73
2022/03/21 01:03:04;;;;;;;0.00;0.00;;;10.00;50.80;;;;;;4088083;29;20102;-72
2022/03/21 01:05:28;;;;;;;0.00;0.00;;;10.00;50.70;;;;;;4100950;29;20581;-74
2022/03/21 01:07:54;;;;;;;0.00;0.00;;;10.00;50.60;;;;;;4087463;29;20044;-73
2022/03/21 01:10:20;;;;;;;0.00;0.00;;;9.90;50.60;;;;;;4102928;28;20138;-71
2022/03/21 01:12:47;;;;;;;0.00;0.00;;;9.90;50.80;;;;;;4117408;28;20389;-75
2022/03/21 01:15:16;;;;;;;0.00;0.00;;;9.80;51.10;;;;;;4116027;28;20512;-72
2022/03/21 01:17:49;;;;;;;0.00;0.00;;;9.90;51.20;;;;;;4117415;28;20102;-71
2022/03/21 01:20:16;;;;;;;0.00;0.00;;;9.90;51.10;;;;;;4116946;28;20047;-72
2022/03/21 01:22:38;;;;;;;0.00;0.00;;;9.90;51.10;;;;;;4116392;28;20461;-72
2022/03/21 01:25:02;;;;;;;0.00;0.00;;;9.90;51.20;;;;;;4116965;28;20039;-72
2022/03/21 01:27:45;;;;;;;0.00;0.00;;;9.80;51.30;;;;;;4100579;28;20043;-73
2022/03/21 01:30:18;;;;;;;0.00;0.00;;;9.80;51.50;;;;;;4101397;28;20055;-73
2022/03/21 01:32:46;;;;;;;0.00;0.00;;;9.80;51.60;;;;;;4102898;28;20161;-73
2022/03/21 01:35:16;;;;;;;0.00;0.00;;;9.80;51.80;;;;;;4116170;28;20073;-73
2022/03/21 01:37:41;;;;;;;0.00;0.00;;;9.80;52.00;;;;;;4086981;29;20055;-74
2022/03/21 01:40:07;;;;;;;0.00;0.00;;;9.70;52.20;;;;;;4115774;28;20458;-74
2022/03/21 01:42:31;;;;;;;0.00;0.00;;;9.60;52.30;;;;;;4116934;28;20049;-73
2022/03/21 01:45:01;;;;;;;0.00;0.00;;;9.60;52.40;;;;;;4089783;28;20474;-72
2022/03/21 01:47:27;;;;;;;0.00;0.00;;;9.60;52.40;;;;;;4106339;28;20043;-75
2022/03/21 01:49:50;;;;;;;0.00;0.00;;;9.60;52.40;;;;;;4114463;28;20047;-72
2022/03/21 01:52:36;;;;;;;0.00;0.00;;;9.50;52.60;;;;;;4115783;28;20047;-74
2022/03/21 01:58:00;;;;;;;0.00;0.00;;;9.50;52.90;;;;;;4116049;28;20137;-71
2022/03/21 02:00:26;;;;;;;0.00;0.00;;;9.40;53.00;;;;;;4099499;28;20059;-74
2022/03/21 02:02:54;;;;;;;0.00;0.00;;;9.50;53.10;;;;;;4106122;28;20055;-73
2022/03/21 02:05:22;;;;;;;0.00;0.00;;;9.40;53.10;;;;;;4099687;28;20467;-73
2022/03/21 02:07:46;;;;;;;0.00;0.00;;;9.30;53.50;;;;;;4086534;29;20048;-75
2022/03/21 02:10:08;;;;;;;0.00;0.00;;;9.20;53.60;;;;;;4115987;28;20058;-72
2022/03/21 02:12:34;;;;;;;0.00;0.00;;;9.10;53.70;;;;;;4102558;28;20043;-73
2022/03/21 02:14:58;;;;;;;0.00;0.00;;;8.90;53.90;;;;;;4115754;28;20050;-72
2022/03/21 02:17:27;;;;;;;0.00;0.00;;;8.80;54.00;;;;;;4115643;28;20537;-74
2022/03/21 02:19:53;;;;;;;0.00;0.00;;;8.90;54.20;;;;;;4102376;28;20051;-73
2022/03/21 02:22:51;;;;;;;0.00;0.00;;;8.80;54.30;;;;;;4116012;28;20411;-73
2022/03/21 02:25:18;;;;;;;0.00;0.00;;;8.90;54.30;;;;;;4115706;28;20141;-72
2022/03/21 02:27:41;;;;;;;0.00;0.00;;;8.90;54.20;;;;;;4089009;28;20485;-74
2022/03/21 02:30:04;;;;;;;0.00;0.00;;;8.90;54.10;;;;;;4115924;28;20047;-72
2022/03/21 02:32:28;;;;;;;0.00;0.00;;;8.90;54.00;;;;;;4101469;28;20046;-74
2022/03/21 02:34:51;;;;;;;0.00;0.00;;;8.90;54.00;;;;;;4099697;28;20055;-73
2022/03/21 02:37:18;;;;;;;0.00;0.00;;;8.90;53.90;;;;;;4099332;29;20047;-74
2022/03/21 02:39:42;;;;;;;0.00;0.00;;;8.80;53.90;;;;;;4086462;29;20111;-76
2022/03/21 02:42:07;;;;;;;0.00;0.00;;;8.80;53.80;;;;;;4088438;28;20077;-74
2022/03/21 02:44:39;;;;;;;0.00;0.00;;;8.70;53.70;;;;;;4101982;28;20090;-74
2022/03/21 02:47:08;;;;;;;0.00;0.00;;;8.70;53.60;;;;;;4102054;28;20713;-76
2022/03/21 02:49:30;;;;;;;0.00;0.00;;;8.60;53.60;;;;;;4115114;28;20118;-71
2022/03/21 02:51:52;;;;;;;0.00;0.00;;;8.60;53.40;;;;;;4101960;28;20043;-73
2022/03/21 02:54:19;;;;;;;0.00;0.00;;;8.60;53.10;;;;;;4101954;28;20047;-74
2022/03/21 02:56:43;;;;;;;0.00;0.00;;;8.60;52.90;;;;;;4115339;28;20053;-75
2022/03/21 02:59:07;;;;;;;0.00;0.00;;;8.60;53.00;;;;;;4072941;29;20052;-72
2022/03/21 03:01:32;;;;;;;0.00;0.00;;;8.60;52.90;;;;;;4089465;29;20467;-74
2022/03/21 03:03:55;;;;;;;0.00;0.00;;;8.60;53.00;;;;;;4089692;29;20070;-73
2022/03/21 03:06:22;;;;;;;0.00;0.00;;;8.50;53.10;;;;;;4105004;28;20053;-73
2022/03/21 03:08:48;;;;;;;0.00;0.00;;;8.50;53.00;;;;;;4089609;29;20087;-73
2022/03/21 03:11:16;;;;;;;0.00;0.00;;;8.50;52.90;;;;;;4098290;28;20043;-73
2022/03/21 03:13:38;;;;;;;0.00;0.00;;;8.50;52.50;;;;;;4118668;28;20043;-74
2022/03/21 03:16:03;;;;;;;0.00;0.00;;;8.50;52.50;;;;;;4105186;28;20054;-71
2022/03/21 03:18:25;;;;;;;0.00;0.00;;;8.40;52.50;;;;;;4118426;28;20078;-73
2022/03/21 03:20:52;;;;;;;0.00;0.00;;;8.30;52.40;;;;;;4118466;28;20109;-74
2022/03/21 03:23:17;;;;;;;0.00;0.00;;;8.40;52.40;;;;;;4118460;28;20043;-75
2022/03/21 03:25:41;;;;;;;0.00;0.00;;;8.30;52.40;;;;;;4105893;28;20114;-73
2022/03/21 03:28:06;;;;;;;0.00;0.00;;;8.40;52.40;;;;;;4091913;28;20047;-72
2022/03/21 03:30:28;;;;;;;0.00;0.00;;;8.30;52.50;;;;;;4104965;28;20047;-75
2022/03/21 03:32:59;;;;;;;0.00;0.00;;;8.30;52.40;;;;;;4118384;28;20081;-71
2022/03/21 03:35:22;;;;;;;0.00;0.00;;;8.30;52.20;;;;;;4118265;28;20097;-74
2022/03/21 03:37:44;;;;;;;0.00;0.00;;;8.30;52.10;;;;;;4104694;28;20110;-73
2022/03/21 03:40:09;;;;;;;0.00;0.00;;;8.30;52.00;;;;;;4091337;28;20059;-71
2022/03/21 03:42:34;;;;;;;0.00;0.00;;;8.30;51.90;;;;;;4104731;28;20055;-73
2022/03/21 03:44:58;;;;;;;0.00;0.00;;;8.30;51.80;;;;;;4091641;28;20056;-73
2022/03/21 03:47:20;;;;;;;0.00;0.00;;;8.40;51.90;;;;;;4118103;28;20532;-72
2022/03/21 03:49:42;;;;;;;0.00;0.00;;;8.30;52.00;;;;;;4104779;28;20062;-74
2022/03/21 03:52:05;;;;;;;0.00;0.00;;;8.20;52.10;;;;;;4104553;28;20054;-73
2022/03/21 03:54:27;;;;;;;0.00;0.00;;;8.10;52.20;;;;;;4104484;28;20056;-77
2022/03/21 03:56:51;;;;;;;0.00;0.00;;;8.10;52.50;;;;;;4104284;28;20090;-73
2022/03/21 03:59:14;;;;;;;0.00;0.00;;;8.10;52.80;;;;;;4090848;28;20036;-74
2022/03/21 04:01:39;;;;;;;0.00;0.00;;;8.10;52.80;;;;;;4104482;28;20435;-74
2022/03/21 04:04:05;;;;;;;0.00;0.00;;;8.20;52.90;;;;;;4077800;28;20060;-76
2022/03/21 04:06:27;;;;;;;0.00;0.00;;;8.20;53.00;;;;;;4103616;28;20051;-73
2022/03/21 04:08:52;;;;;;;0.00;0.00;;;8.20;53.20;;;;;;4117685;28;20090;-71
2022/03/21 04:11:18;;;;;;;0.00;0.00;;;8.20;53.30;;;;;;4077768;28;20052;-76
2022/03/21 04:13:44;;;;;;;0.00;0.00;;;8.20;53.40;;;;;;4091045;28;20048;-74
2022/03/21 04:16:07;;;;;;;0.00;0.00;;;8.20;53.40;;;;;;4103673;28;20522;-76
2022/03/21 04:18:31;;;;;;;0.00;0.00;;;8.20;53.40;;;;;;4104201;28;20362;-72
2022/03/21 04:21:13;;;;;;;0.00;0.00;;;8.20;53.30;;;;;;4104010;28;20048;-72
2022/03/21 04:23:40;;;;;;;0.00;0.00;;;8.30;53.30;;;;;;4103982;28;20106;-76
2022/03/21 04:26:05;;;;;;;0.00;0.00;;;8.30;53.20;;;;;;4090847;28;20091;-75
2022/03/21 04:28:30;;;;;;;0.00;0.00;;;8.30;53.10;;;;;;4103653;28;20387;-74
2022/03/21 04:30:52;;;;;;;0.00;0.00;;;8.40;53.10;;;;;;4117454;28;20039;-74
2022/03/21 04:33:17;;;;;;;0.00;0.00;;;8.40;53.10;;;;;;4117451;28;20043;-73
2022/03/21 04:35:39;;;;;;;0.00;0.00;;;8.40;53.30;;;;;;4090666;28;20055;-73
2022/03/21 04:38:12;;;;;;;0.00;0.00;;;8.40;53.30;;;;;;4090821;28;20056;-74
2022/03/21 04:40:36;;;;;;;0.00;0.00;;;8.40;53.40;;;;;;4103290;28;20051;-72
2022/03/21 04:42:58;;;;;;;0.00;0.00;;;8.30;53.60;;;;;;4103894;28;20063;-75
2022/03/21 04:45:22;;;;;;;0.00;0.00;;;8.30;53.70;;;;;;4090599;28;20066;-73
2022/03/21 04:47:52;;;;;;;0.00;0.00;;;8.30;53.70;;;;;;4103755;28;20426;-73
2022/03/21 04:50:17;;;;;;;0.00;0.00;;;8.30;53.70;;;;;;4077460;28;20156;-72
2022/03/21 04:52:39;;;;;;;0.00;0.00;;;8.20;53.80;;;;;;4090832;28;20133;-74
2022/03/21 04:55:07;;;;;;;0.00;0.00;;;8.20;53.90;;;;;;4117364;28;20055;-76
2022/03/21 04:57:38;;;;;;;0.00;0.00;;;8.20;54.10;;;;;;4117427;28;20047;-72
2022/03/21 05:00:00;;;;;;;0.00;0.00;;;8.20;54.20;;;;;;4090334;28;20395;-72
2022/03/21 05:02:22;;;;;;;0.00;0.00;;;8.20;54.40;;;;;;4116848;28;20133;-74
2022/03/21 05:04:51;;;;;;;0.00;0.00;;;8.10;54.40;;;;;;4090905;28;20051;-73
2022/03/21 05:07:16;;;;;;;0.00;0.00;;;8.20;54.40;;;;;;4103961;28;20051;-75
2022/03/21 05:09:41;;;;;;;0.00;0.00;;;8.10;54.30;;;;;;4090491;28;20471;-74
2022/03/21 05:12:04;;;;;;;0.00;0.00;;;8.10;54.30;;;;;;4090390;28;20053;-74
2022/03/21 05:14:26;;;;;;;0.00;0.00;;;8.10;54.30;;;;;;4090260;28;20442;-76
2022/03/21 05:16:52;;;;;;;0.00;0.00;;;8.10;54.40;;;;;;4103578;28;20059;-76
2022/03/21 05:19:14;;;;;;;0.00;0.00;;;8.20;54.40;;;;;;4117211;28;20090;-75
2022/03/21 05:21:36;;;;;;;0.00;0.00;;;8.10;54.40;;;;;;4103773;28;20419;-72
2022/03/21 05:32:18;;;;;;;0.00;0.00;;;7.90;55.20;;;;;;4116572;28;20446;-74
2022/03/21 05:37:21;;;;;;;0.00;0.00;;;7.80;54.90;;;;;;4116636;28;20078;-73
2022/03/21 05:42:26;;;;;;;0.00;0.00;;;7.90;54.80;;;;;;4089439;28;20152;-73
2022/03/21 05:44:48;;;;;;;0.00;0.00;;;7.90;55.00;;;;;;4116813;28;20458;-72
2022/03/21 05:47:10;;;;;;;0.00;0.00;;;8.00;55.30;;;;;;4089807;28;20046;-75
2022/03/21 05:49:32;;;;;;;0.00;0.00;;;7.90;55.80;;;;;;4089690;28;20487;-73
2022/03/21 05:51:56;;;;;;;0.00;0.00;;;7.90;56.30;;;;;;4103080;28;20058;-74
2022/03/21 05:54:22;;;;;;;0.00;0.00;;;7.80;56.60;;;;;;4116165;28;20064;-74
2022/03/21 05:56:44;;;;;;;0.00;0.00;;;7.80;57.00;;;;;;4102689;28;20047;-76
2022/03/21 06:01:51;;;;;;;0.00;0.00;;;7.90;57.10;;;;;;4102942;28;20070;-72
2022/03/21 06:04:14;;;;;;;0.00;0.00;;;7.90;57.00;;;;;;4089095;28;20040;-74
2022/03/21 06:06:36;;;;;;;0.00;0.00;;;8.00;57.00;;;;;;4089321;28;20040;-74
2022/03/21 06:08:58;;;;;;;0.00;0.00;;;8.00;56.90;;;;;;4115905;28;20039;-72
2022/03/21 06:11:26;;;;;;;0.00;0.00;;;8.10;56.80;;;;;;4116176;28;20051;-73
2022/03/21 06:13:53;;;;;;;0.00;0.00;;;8.10;56.60;;;;;;4089977;28;20051;-75
2022/03/21 06:16:17;;;;;;;0.00;0.00;;;8.20;56.40;;;;;;4115570;28;20462;-72
2022/03/21 06:18:40;;;;;;;0.00;0.00;;;8.30;56.30;;;;;;4116111;28;20086;-75
2022/03/21 06:21:04;;;;;;;0.00;0.00;;;8.30;56.40;;;;;;4102708;28;20475;-71
2022/03/21 06:23:29;;;;;;;0.00;0.00;;;8.30;56.40;;;;;;4115950;28;20486;-70
2022/03/21 06:25:55;;;;;;;0.00;0.00;;;8.40;56.50;;;;;;4116061;28;20055;-70
2022/03/21 06:28:21;;;;;;;0.00;0.00;;;8.50;56.50;;;;;;4075884;28;20047;-72
2022/03/21 06:30:45;;;;;;;0.00;0.00;;;8.60;56.60;;;;;;4102601;28;20466;-73
2022/03/21 06:33:09;;;;;;;0.00;0.00;;;8.50;57.00;;;;;;4088876;28;20063;-74
2022/03/21 06:35:31;;;;;;;0.00;0.00;;;8.40;57.30;;;;;;4102101;28;20043;-75
2022/03/21 06:37:55;;;;;;;0.00;0.00;;;8.50;57.10;;;;;;4089133;28;20083;-72
2022/03/21 06:40:20;;;;;;;0.00;0.00;;;8.80;56.90;;;;;;4101862;28;20055;-71
2022/03/21 06:42:44;;;;;;;0.00;0.00;;;9.00;57.00;;;;;;4089222;28;20099;-72
2022/03/21 06:45:09;;;;;;;0.00;0.00;;;9.10;57.20;;;;;;4089192;28;20383;-74
2022/03/21 06:47:37;;;;;;;0.00;0.00;;;9.30;57.30;;;;;;4102361;28;20456;-73
2022/03/21 06:49:59;;;;;;;0.00;0.00;;;9.50;57.40;;;;;;4089019;28;20126;-73
2022/03/21 06:52:22;;;;;;;0.00;0.00;;;9.60;57.50;;;;;;4115443;28;20055;-73
2022/03/21 06:54:48;;;;;;;0.00;0.00;;;9.60;57.60;;;;;;4116659;28;20051;-75
2022/03/21 06:57:10;;;;;;;0.00;0.00;;;9.70;57.40;;;;;;4102678;28;20047;-75
2022/03/21 06:59:34;;;;;;;0.00;0.00;;;9.70;57.30;;;;;;4116054;28;20105;-72
2022/03/21 07:01:57;;;;;;;0.00;0.00;;;9.90;57.30;;;;;;4115856;28;20054;-72
2022/03/21 07:04:22;;;;;;;0.00;0.00;;;10.10;57.10;;;;;;4088566;28;20057;-73
2022/03/21 07:06:47;;;;;;;0.00;0.00;;;9.90;57.70;;;;;;4088986;28;20058;-72
2022/03/21 07:09:09;;;;;;;0.00;0.00;;;10.10;57.80;;;;;;4089148;28;20479;-72
2022/03/21 07:11:34;;;;;;;0.00;0.00;;;10.10;57.90;;;;;;4102314;28;20043;-74
2022/03/21 07:13:56;;;;;;;0.00;0.00;;;10.20;57.70;;;;;;4088808;28;20114;-72
2022/03/21 07:16:18;;;;;;;0.00;0.00;;;10.20;58.10;;;;;;4088483;28;20458;-74
2022/03/21 07:18:43;;;;;;;0.00;0.00;;;10.50;58.20;;;;;;4088784;28;20211;-74
2022/03/21 07:21:05;;;;;;;0.00;0.00;;;10.80;58.00;;;;;;4115576;28;20459;-74
2022/03/21 07:23:27;;;;;;;0.00;0.00;;;11.00;58.50;;;;;;4102109;28;20067;-72
2022/03/21 07:25:52;;;;;;;0.00;0.00;;;11.00;59.20;;;;;;4088823;28;20130;-74
2022/03/21 07:28:14;;;;;;;0.00;0.00;;;11.20;59.10;;;;;;4088376;28;20066;-74
2022/03/21 07:30:38;;;;;;;0.00;0.00;;;11.20;59.60;;;;;;4075208;28;20374;-74
2022/03/21 07:33:00;;;;;;;0.00;0.00;;;11.40;59.60;;;;;;4102042;28;20047;-72
2022/03/21 07:35:23;;;;;;;0.00;0.00;;;11.40;59.50;;;;;;4088691;28;20051;-74
2022/03/21 07:37:52;;;;;;;0.00;0.00;;;11.70;59.40;;;;;;4101906;28;20077;-76
2022/03/21 07:40:15;;;;;;;0.00;0.00;;;12.00;58.70;;;;;;4101486;28;20517;-73
2022/03/21 07:42:43;;;;;;;0.00;0.00;;;12.10;58.40;;;;;;4115384;28;20038;-75
2022/03/21 07:47:51;;;;;;;0.00;0.00;;;11.90;58.20;;;;;;4090551;28;20102;-73
2022/03/21 07:50:13;;;;;;;0.00;0.00;;;12.10;58.10;;;;;;4104658;28;20382;-76
2022/03/21 07:52:35;;;;;;;0.00;0.00;;;12.20;58.10;;;;;;4092007;28;20059;-74
2022/03/21 07:54:59;;;;;;;0.00;0.00;;;12.40;57.90;;;;;;4092099;28;20115;-75
2022/03/21 07:57:27;;;;;;;0.00;0.00;;;12.70;57.10;;;;;;4105087;28;20401;-74
2022/03/21 07:59:50;;;;;;;0.00;0.00;;;13.00;56.90;;;;;;4104711;28;20497;-73
2022/03/21 08:02:12;;;;;;;0.00;0.00;;;13.00;56.80;;;;;;4104284;28;20044;-72
2022/03/21 08:04:40;;;;;;;0.00;0.00;;;13.30;56.80;;;;;;4104941;28;20617;-72
2022/03/21 08:07:05;;;;;;;0.00;0.00;;;13.50;56.10;;;;;;4118467;28;20047;-72
2022/03/21 08:09:28;;;;;;;0.00;0.00;;;13.70;55.30;;;;;;4104799;28;20062;-73
2022/03/21 08:11:50;;;;;;;0.00;0.00;;;13.90;54.60;;;;;;4104858;28;20055;-73
2022/03/21 08:14:17;;;;;;;0.00;0.00;;;14.20;54.30;;;;;;4091079;28;20103;-75
2022/03/21 08:16:39;;;;;;;0.00;0.00;;;14.40;53.10;;;;;;4091260;28;20050;-74
2022/03/21 08:19:04;;;;;;;0.00;0.00;;;14.60;52.30;;;;;;4117927;28;20043;-74
2022/03/21 08:21:26;;;;;;;0.00;0.00;;;14.50;52.30;;;;;;4091357;28;20052;-73
2022/03/21 08:23:49;;;;;;;0.00;0.00;;;14.70;51.90;;;;;;4104444;28;20047;-72
2022/03/21 08:26:11;;;;;;;0.00;0.00;;;15.00;51.10;;;;;;4117312;28;20058;-74
2022/03/21 08:28:33;;;;;;;0.00;0.00;;;14.70;50.90;;;;;;4090990;28;20048;-73
2022/03/21 08:30:58;;;;;;;0.00;0.00;;;14.80;50.60;;;;;;4090592;28;20066;-74
2022/03/21 08:33:22;;;;;;;0.00;0.00;;;14.80;50.30;;;;;;4091088;28;20448;-71
2022/03/21 08:35:46;;;;;;;0.00;0.00;;;14.60;49.60;;;;;;4104190;28;20059;-74
2022/03/21 08:38:09;;;;;;;0.00;0.00;;;14.90;48.60;;;;;;4090562;28;20086;-74
2022/03/21 08:40:32;;;;;;;0.00;0.00;;;15.30;47.50;;;;;;4104472;28;20043;-73
2022/03/21 08:43:03;;;;;;;0.00;0.00;;;15.60;46.70;;;;;;4091117;28;20051;-73
2022/03/21 08:45:30;;;;;;;0.00;0.00;;;15.70;46.20;;;;;;4104271;28;20477;-74
2022/03/21 08:47:53;;;;;;;0.00;0.00;;;15.40;46.00;;;;;;4103985;28;20047;-74
2022/03/21 08:50:21;;;;;;;0.00;0.00;;;15.40;46.30;;;;;;4117130;28;20134;-74
2022/03/21 08:52:46;;;;;;;0.00;0.00;;;15.60;45.80;;;;;;4077298;28;20055;-71
2022/03/21 08:55:08;;;;;;;0.00;0.00;;;15.80;45.10;;;;;;4091104;28;20052;-72
2022/03/21 08:57:33;;;;;;;0.00;0.00;;;16.10;44.60;;;;;;4101337;28;20134;-73
2022/03/21 08:59:57;;;;;;;0.00;0.00;;;16.00;44.80;;;;;;4102183;29;20057;-76
2022/03/21 09:02:22;;;;;;;0.00;0.00;;;16.30;44.40;;;;;;4103364;28;20043;-74
2022/03/21 09:04:45;;;;;;;0.00;0.00;;;16.50;43.60;;;;;;4101115;28;20043;-73
2022/03/21 09:07:09;;;;;;;0.00;0.00;;;16.80;43.20;;;;;;4087753;29;20051;-73
2022/03/21 09:09:34;;;;;;;0.00;0.00;;;16.90;43.20;;;;;;4087979;29;20059;-72
2022/03/21 09:11:57;;;;;;;0.00;0.00;;;17.00;42.80;;;;;;4087668;29;20453;-74
2022/03/21 09:14:19;;;;;;;0.00;0.00;;;16.80;42.70;;;;;;4076272;28;20059;-72
2022/03/21 09:16:49;;;;;;;0.00;0.00;;;16.00;43.50;;;;;;4100943;28;20035;-70
2022/03/21 09:19:14;;;;;;;0.00;0.00;;;15.50;44.50;;;;;;4087761;29;20701;-73
2022/03/21 09:21:39;;;;;;;0.00;0.00;;;15.30;45.00;;;;;;4087782;29;20044;-71
2022/03/21 09:24:02;;;;;;;0.00;0.00;;;15.20;45.00;;;;;;4087785;29;20052;-70
2022/03/21 09:26:25;;;;;;;0.00;0.00;;;15.40;44.50;;;;;;4100486;29;20060;-72
2022/03/21 09:28:48;;;;;;;0.00;0.00;;;16.00;44.40;;;;;;4101061;29;20109;-71
2022/03/21 09:31:18;;;;;;;0.00;0.00;;;16.70;43.10;;;;;;4087561;29;20093;-72
2022/03/21 09:34:02;;;;;;;0.00;0.00;;;16.40;42.40;;;;;;4087529;29;20478;-71
2022/03/21 09:36:26;;;;;;;0.00;0.00;;;16.60;42.70;;;;;;4103091;28;20058;-71
2022/03/21 09:38:51;;;;;;;0.00;0.00;;;16.80;43.30;;;;;;4103552;28;20727;-70
2022/03/21 09:41:14;;;;;;;0.00;0.00;;;17.00;42.80;;;;;;4116816;28;20050;-71
2022/03/21 09:43:39;;;;;;;0.00;0.00;;;16.70;42.90;;;;;;4103221;28;20095;-70
2022/03/21 09:46:01;;;;;;;0.00;0.00;;;16.50;43.20;;;;;;4103486;28;20055;-72
2022/03/21 09:48:30;;;;;;;0.00;0.00;;;16.00;43.30;;;;;;4076422;28;20091;-74
2022/03/21 09:50:56;;;;;;;0.00;0.00;;;16.30;43.70;;;;;;4103131;28;20067;-73
2022/03/21 09:53:21;;;;;;;0.00;0.00;;;16.50;43.30;;;;;;4102711;28;20445;-73
2022/03/21 09:55:46;;;;;;;0.00;0.00;;;17.10;42.90;;;;;;4089872;28;20091;-71
2022/03/21 09:58:11;;;;;;;0.00;0.00;;;17.50;42.00;;;;;;4073439;28;20067;-70
2022/03/21 10:00:40;;;;;;;0.00;0.00;;;17.80;42.20;;;;;;4087071;29;20054;-71
2022/03/21 10:03:05;;;;;;;0.00;0.00;;;18.20;40.60;;;;;;4100493;29;20043;-74
2022/03/21 10:05:30;;;;;;;0.00;0.00;;;18.30;41.60;;;;;;4073898;29;20036;-72
2022/03/21 10:08:08;;;;;;;0.00;0.00;;;18.10;39.10;;;;;;4073727;29;20215;-72
2022/03/21 10:10:30;;;;;;;0.00;0.00;;;17.80;40.30;;;;;;4102862;28;20051;-72
2022/03/21 10:12:56;;;;;;;0.00;0.00;;;18.10;40.00;;;;;;4100105;28;20055;-73
2022/03/21 10:15:24;;;;;;;0.00;0.00;;;18.30;39.50;;;;;;4086879;29;20055;-72
2022/03/21 10:18:05;;;;;;;0.00;0.00;;;18.50;38.30;;;;;;4086620;29;20055;-71
2022/03/21 10:20:34;;;;;;;0.00;0.00;;;18.20;38.20;;;;;;4089403;28;20454;-71
2022/03/21 10:22:56;;;;;;;0.00;0.00;;;18.50;38.70;;;;;;4102525;28;20051;-72
2022/03/21 10:25:26;;;;;;;0.00;0.00;;;18.60;38.70;;;;;;4102596;28;20074;-70
2022/03/21 10:27:51;;;;;;;0.00;0.00;;;18.50;37.20;;;;;;4100234;28;20043;-70
2022/03/21 10:30:22;;;;;;;0.00;0.00;;;18.20;37.40;;;;;;4087448;28;20058;-75
2022/03/21 10:32:55;;;;;;;0.00;0.00;;;17.60;38.70;;;;;;4089520;28;20502;-72
2022/03/21 10:35:18;;;;;;;0.00;0.00;;;17.80;38.90;;;;;;4100222;28;20430;-72
2022/03/21 10:37:58;;;;;;;0.00;0.00;;;17.60;39.00;;;;;;4099985;29;20043;-73
2022/03/21 10:40:31;;;;;;;0.00;0.00;;;17.90;39.20;;;;;;4102261;28;20071;-72
2022/03/21 10:43:09;;;;;;;0.00;0.00;;;18.70;38.60;;;;;;4102397;28;20051;-73
2022/03/21 10:45:34;;;;;;;0.00;0.00;;;19.40;37.30;;;;;;4102612;28;20142;-72
2022/03/21 10:48:04;;;;;;;0.00;0.00;;;19.70;36.50;;;;;;4102441;28;20485;-71
2022/03/21 10:50:43;;;;;;;0.00;0.00;;;19.40;36.50;;;;;;4102627;28;20575;-72
2022/03/21 10:53:13;;;;;;;0.00;0.00;;;19.40;36.50;;;;;;4089382;28;20083;-71
2022/03/21 10:55:38;;;;;;;0.00;0.00;;;18.80;37.10;;;;;;4102789;28;20047;-71
2022/03/21 10:58:03;;;;;;;0.00;0.00;;;19.20;36.90;;;;;;4102601;28;20039;-73
2022/03/21 11:00:26;;;;;;;0.00;0.00;;;19.20;36.40;;;;;;4115309;28;20070;-71
2022/03/21 11:02:57;;;;;;;0.00;0.00;;;18.20;37.50;;;;;;4102106;28;20063;-72
2022/03/21 11:05:24;;;;;;;0.00;0.00;;;18.10;37.70;;;;;;4100064;29;20078;-71
2022/03/21 11:07:49;;;;;;;0.00;0.00;;;18.50;37.70;;;;;;4099151;29;20163;-73
2022/03/21 11:10:12;;;;;;;0.00;0.00;;;19.10;37.30;;;;;;4086040;29;20047;-72
2022/03/21 11:12:39;;;;;;;0.00;0.00;;;19.70;36.80;;;;;;4086490;29;20044;-74
2022/03/21 11:15:04;;;;;;;0.00;0.00;;;19.60;36.10;;;;;;4073163;29;20041;-70
2022/03/21 11:17:36;;;;;;;0.00;0.00;;;19.50;36.50;;;;;;4086495;29;20069;-71
2022/03/21 11:20:00;;;;;;;0.00;0.00;;;19.60;36.80;;;;;;4095967;29;20072;-72
2022/03/21 11:22:26;;;;;;;0.00;0.00;;;19.60;36.70;;;;;;4097054;28;20470;-72
2022/03/21 11:24:51;;;;;;;0.00;0.00;;;19.60;36.40;;;;;;4105607;28;20367;-73
2022/03/21 11:27:46;;;;;;;0.00;0.00;;;19.10;36.70;;;;;;4105590;28;20063;-73
2022/03/21 11:30:20;;;;;;;0.00;0.00;;;18.50;37.30;;;;;;4092097;28;20059;-72
2022/03/21 11:33:15;;;;;;;0.00;0.00;;;18.10;38.00;;;;;;4119056;28;20050;-73
2022/03/21 11:35:48;;;;;;;0.00;0.00;;;18.90;38.20;;;;;;4105432;28;20051;-71
2022/03/21 11:38:29;;;;;;;0.00;0.00;;;19.80;37.00;;;;;;4063163;28;20059;-71
2022/03/21 11:41:08;;;;;;;0.00;0.00;;;20.40;36.40;;;;;;4118919;28;20092;-73
2022/03/21 11:43:33;;;;;;;0.00;0.00;;;20.70;36.00;;;;;;4102491;28;20130;-71
2022/03/21 11:45:57;;;;;;;0.00;0.00;;;21.00;35.70;;;;;;4089466;29;20465;-74
2022/03/21 11:48:19;;;;;;;0.00;0.00;;;21.30;34.90;;;;;;4091603;28;20083;-72
2022/03/21 11:50:41;;;;;;;0.00;0.00;;;21.50;34.60;;;;;;4092085;28;20043;-71
2022/03/21 11:53:08;;;;;;;0.00;0.00;;;21.70;34.60;;;;;;4089347;29;20055;-72
2022/03/21 11:55:38;;;;;;;0.00;0.00;;;21.80;34.20;;;;;;4089237;29;20048;-72
2022/03/21 11:58:22;;;;;;;0.00;0.00;;;21.80;33.80;;;;;;4101706;29;20079;-70
2022/03/21 12:01:03;;;;;;;0.00;0.00;;;21.70;33.40;;;;;;4115897;28;20047;-72
2022/03/21 12:03:25;;;;;;;0.00;0.00;;;21.40;33.50;;;;;;4075559;29;20508;-73
2022/03/21 12:05:53;;;;;;;0.00;0.00;;;20.60;33.50;;;;;;4088963;29;20111;-70
2022/03/21 12:08:31;;;;;;;0.00;0.00;;;19.90;34.40;;;;;;4102713;28;20375;-71
2022/03/21 12:10:53;;;;;;;0.00;0.00;;;19.60;35.10;;;;;;4108379;28;20102;-74
2022/03/21 12:13:19;;;;;;;0.00;0.00;;;19.90;35.10;;;;;;4091368;28;20047;-72
2022/03/21 12:15:51;;;;;;;0.00;0.00;;;20.20;34.70;;;;;;4091252;28;20052;-70
2022/03/21 12:18:15;;;;;;;0.00;0.00;;;20.70;34.00;;;;;;4090877;28;20064;-69
2022/03/21 12:20:50;;;;;;;0.00;0.00;;;20.90;33.80;;;;;;4101951;28;20071;-70
2022/03/21 12:23:20;;;;;;;0.00;0.00;;;20.90;32.90;;;;;;4101683;29;20126;-73
2022/03/21 12:25:46;;;;;;;0.00;0.00;;;20.90;32.90;;;;;;4088508;29;20431;-70
2022/03/21 12:31:31;;;;;;;0.00;0.00;;;19.50;32.90;;;;;;4117867;28;20477;-74
2022/03/21 12:34:34;;;;;;;0.00;0.00;;;19.50;33.00;;;;;;4103933;28;20098;-73
2022/03/21 12:37:09;;;;;;;0.00;0.00;;;19.90;32.40;;;;;;4074871;29;20046;-73
2022/03/21 12:39:36;;;;;;;0.00;0.00;;;20.40;31.60;;;;;;4101381;28;20119;-75
2022/03/21 12:42:00;;;;;;;0.00;0.00;;;20.50;31.30;;;;;;4088463;29;20052;-75
2022/03/21 12:44:27;;;;;;;0.00;0.00;;;20.60;30.70;;;;;;4090593;28;20470;-71
2022/03/21 12:47:01;;;;;;;0.00;0.00;;;20.50;30.20;;;;;;4104279;28;20059;-75
2022/03/21 12:49:23;;;;;;;0.00;0.00;;;20.40;30.20;;;;;;4117500;28;20065;-72
2022/03/21 12:51:47;;;;;;;0.00;0.00;;;20.30;30.10;;;;;;4104147;28;20043;-72
2022/03/21 12:54:15;;;;;;;0.00;0.00;;;20.20;30.70;;;;;;4090543;28;20063;-73
2022/03/21 12:56:40;;;;;;;0.00;0.00;;;20.00;31.30;;;;;;4088603;29;20074;-73
2022/03/21 12:59:07;;;;;;;0.00;0.00;;;20.20;31.70;;;;;;4101625;29;20053;-72
2022/03/21 13:01:35;;;;;;;0.00;0.00;;;20.40;31.70;;;;;;4088267;29;20052;-72
2022/03/21 13:10:32;;;;;;;0.00;0.00;;;20.70;32.00;;;;;;4088137;29;20127;-71
2022/03/21 13:12:26;;;;;;;0.00;0.00;;;20.70;31.20;;;;;;4116663;28;20459;-73
2022/03/21 13:14:49;;;;;;;0.00;0.00;;;20.00;31.50;;;;;;4103661;28;20434;-74
2022/03/21 13:17:12;;;;;;;0.00;0.00;;;19.80;32.40;;;;;;4117277;28;20061;-73